Terminal Aerodrome Forecast
Issued by NWS

Home | Current Version | Previous Version | Text Only | Print | Product List | Glossary On
Versions: 1 2 3 4 5 6 7 8 9 10 11 12 13 14 15 16 17 18 19 20 21 22 23 24 25 26 27 28 29 30 31 32 33
000
FTUS43 KMKX 211740
TAFENW
TAF
KENW 211740Z 2118/2218 18014G24KT P6SM FEW250
     FM220300 18011KT P6SM SCT120 WS020/19040KT
     FM220800 18010KT P6SM VCSH BKN090 WS020/20040KT
     FM221100 18010KT P6SM BKN080 WS020/20045KT
     FM221300 19011G21KT P6SM BKN060
     FM221500 19013G23KT P6SM BKN025=

USA.gov is the U.S. government's official web portal to all federal, state and local government web resources and services.